Time;durP1;ratioP1;P1;durP2;ratioP2;P2;SDS_P1;SDS_P2;PMS_P1;PMS_P2;Temp;Humidity;BMP_temperature;BMP_pressure;BME280_temperature;BME280_humidity;BME280_pressure;Samples;Min_cycle;Max_cycle;Signal;HPM_P1;HPM_P2
2023/01/24 00:00:23;;;;;;;10.03;8.97;;;;;;;;;;5008863;28;20208;-68
2023/01/24 00:02:48;;;;;;;9.60;8.27;;;;;;;;;;5010631;28;20300;-69
2023/01/24 00:05:13;;;;;;;9.67;8.67;;;;;;;;;;5009249;28;20302;-69
2023/01/24 00:07:39;;;;;;;8.53;7.20;;;;;;;;;;4992804;28;20228;-69
2023/01/24 00:10:05;;;;;;;7.33;6.27;;;;;;;;;;5002955;28;20219;-69
2023/01/24 00:12:30;;;;;;;8.23;6.80;;;;;;;;;;5009501;28;20220;-69
2023/01/24 00:14:57;;;;;;;8.77;6.73;;;;;;;;;;5009261;28;20220;-69
2023/01/24 00:17:24;;;;;;;8.43;7.40;;;;;;;;;;5009977;28;20232;-69
2023/01/24 00:19:49;;;;;;;8.93;7.30;;;;;;;;;;5009610;28;20212;-69
2023/01/24 00:22:14;;;;;;;10.90;8.80;;;;;;;;;;5008644;28;20208;-69
2023/01/24 00:24:40;;;;;;;9.67;8.10;;;;;;;;;;5009181;28;20665;-65
2023/01/24 00:27:05;;;;;;;9.10;7.93;;;;;;;;;;4983678;28;20221;-65
2023/01/24 00:29:30;;;;;;;9.43;8.07;;;;;;;;;;4974178;28;21176;-65
2023/01/24 00:31:55;;;;;;;9.90;8.33;;;;;;;;;;4976787;28;20256;-65
2023/01/24 00:34:21;;;;;;;9.23;8.13;;;;;;;;;;4980957;28;20549;-65
2023/01/24 00:36:46;;;;;;;8.40;6.93;;;;;;;;;;4980795;28;20221;-65
2023/01/24 00:39:11;;;;;;;9.27;8.27;;;;;;;;;;4996418;28;20220;-65
2023/01/24 00:41:37;;;;;;;9.77;8.30;;;;;;;;;;5000625;28;21458;-65
2023/01/24 00:44:02;;;;;;;9.27;8.37;;;;;;;;;;5000179;28;20287;-65
2023/01/24 00:46:27;;;;;;;9.60;8.50;;;;;;;;;;4998504;28;21174;-65
2023/01/24 00:48:52;;;;;;;9.33;8.17;;;;;;;;;;4990523;28;20227;-65
2023/01/24 00:51:18;;;;;;;11.07;8.80;;;;;;;;;;4991465;28;20323;-65
2023/01/24 00:53:43;;;;;;;9.63;8.33;;;;;;;;;;5011492;28;21228;-65
2023/01/24 00:56:08;;;;;;;9.77;8.60;;;;;;;;;;5019611;28;20699;-65
2023/01/24 00:58:34;;;;;;;9.97;8.27;;;;;;;;;;5019784;28;20212;-65
2023/01/24 01:01:02;;;;;;;10.30;9.03;;;;;;;;;;5011334;28;20647;-65
2023/01/24 01:03:27;;;;;;;9.40;8.40;;;;;;;;;;5002359;28;20216;-65
2023/01/24 01:05:57;;;;;;;10.00;8.37;;;;;;;;;;5035599;28;20208;-65
2023/01/24 01:08:23;;;;;;;10.90;8.50;;;;;;;;;;4995762;28;20225;-65
2023/01/24 01:10:48;;;;;;;9.30;8.20;;;;;;;;;;4978202;28;20252;-65
2023/01/24 01:13:13;;;;;;;9.50;8.50;;;;;;;;;;4976089;28;20641;-65
2023/01/24 01:15:38;;;;;;;10.23;8.90;;;;;;;;;;4976663;28;20296;-65
2023/01/24 01:18:04;;;;;;;10.53;8.50;;;;;;;;;;4982620;28;20213;-66
2023/01/24 01:20:29;;;;;;;10.97;9.07;;;;;;;;;;4984161;28;20524;-65
2023/01/24 01:22:54;;;;;;;9.33;8.10;;;;;;;;;;4983521;28;20212;-65
2023/01/24 01:25:20;;;;;;;9.50;8.20;;;;;;;;;;4983904;28;20612;-65
2023/01/24 01:27:45;;;;;;;10.93;9.00;;;;;;;;;;4983777;28;20303;-65
2023/01/24 01:30:10;;;;;;;11.20;9.00;;;;;;;;;;4982945;28;20257;-65
2023/01/24 01:32:36;;;;;;;11.10;8.40;;;;;;;;;;4979492;28;20494;-65
2023/01/24 01:35:01;;;;;;;11.30;8.80;;;;;;;;;;4976066;28;20783;-65
2023/01/24 01:37:27;;;;;;;10.33;8.63;;;;;;;;;;4961029;28;20962;-65
2023/01/24 01:39:52;;;;;;;10.70;8.80;;;;;;;;;;5000027;28;20271;-65
2023/01/24 01:42:17;;;;;;;9.87;8.30;;;;;;;;;;4987914;28;20263;-65
2023/01/24 01:44:47;;;;;;;9.70;8.57;;;;;;;;;;4983717;28;20225;-65
2023/01/24 01:47:13;;;;;;;9.67;8.30;;;;;;;;;;4983213;28;20242;-65
2023/01/24 01:49:38;;;;;;;10.17;8.60;;;;;;;;;;4982722;28;20213;-65
2023/01/24 01:52:03;;;;;;;10.00;8.37;;;;;;;;;;4965216;28;20228;-65
2023/01/24 01:54:30;;;;;;;9.30;7.83;;;;;;;;;;4963720;28;20205;-65
2023/01/24 01:56:57;;;;;;;8.90;7.93;;;;;;;;;;4994682;28;20219;-65
2023/01/24 01:59:25;;;;;;;11.23;8.93;;;;;;;;;;4977111;28;20242;-65
2023/01/24 02:01:51;;;;;;;11.10;8.83;;;;;;;;;;4997651;28;20204;-65
2023/01/24 02:04:17;;;;;;;10.10;8.70;;;;;;;;;;5000861;28;20217;-65
2023/01/24 02:06:50;;;;;;;10.63;8.90;;;;;;;;;;4998543;28;20236;-65
2023/01/24 02:09:18;;;;;;;11.70;9.93;;;;;;;;;;5007596;28;20292;-65
2023/01/24 02:11:43;;;;;;;11.00;9.20;;;;;;;;;;5020887;28;20239;-65
2023/01/24 02:16:53;;;;;;;11.33;9.67;;;;;;;;;;5005586;28;20222;-65
2023/01/24 02:19:31;;;;;;;11.37;9.47;;;;;;;;;;5014014;28;20215;-65
2023/01/24 02:21:57;;;;;;;11.90;10.57;;;;;;;;;;5014301;28;20863;-65
2023/01/24 02:24:31;;;;;;;12.37;11.07;;;;;;;;;;4997624;28;20227;-65
2023/01/24 02:26:57;;;;;;;11.73;10.30;;;;;;;;;;5004268;28;20357;-65
2023/01/24 02:29:22;;;;;;;12.07;10.20;;;;;;;;;;5003473;28;20216;-65
2023/01/24 02:31:52;;;;;;;13.07;10.90;;;;;;;;;;5021172;28;20797;-65
2023/01/24 02:34:18;;;;;;;12.47;10.80;;;;;;;;;;5017470;28;20217;-65
2023/01/24 02:36:43;;;;;;;12.60;11.30;;;;;;;;;;5002145;28;20227;-65
2023/01/24 02:39:11;;;;;;;11.97;10.67;;;;;;;;;;4983045;28;20304;-65
2023/01/24 02:41:43;;;;;;;11.63;10.27;;;;;;;;;;4988048;28;20213;-65
2023/01/24 02:44:10;;;;;;;11.27;9.90;;;;;;;;;;4995520;28;20941;-65
2023/01/24 02:46:36;;;;;;;12.97;11.10;;;;;;;;;;4997085;28;20230;-65
2023/01/24 02:49:01;;;;;;;12.20;10.90;;;;;;;;;;5020334;28;20494;-65
2023/01/24 02:54:10;;;;;;;12.90;11.23;;;;;;;;;;5000803;28;20268;-65
2023/01/24 02:59:20;;;;;;;13.57;11.90;;;;;;;;;;5001550;28;20219;-65
2023/01/24 03:01:45;;;;;;;12.93;11.33;;;;;;;;;;5000328;28;20224;-65
2023/01/24 03:04:12;;;;;;;12.83;11.27;;;;;;;;;;4991255;28;20287;-65
2023/01/24 03:06:37;;;;;;;14.20;12.10;;;;;;;;;;5010529;28;20215;-65
2023/01/24 03:09:18;;;;;;;14.33;11.70;;;;;;;;;;5019814;28;20215;-65
2023/01/24 03:11:44;;;;;;;12.87;11.33;;;;;;;;;;5030638;28;20577;-65
2023/01/24 03:36:01;;;;;;;14.03;12.57;;;;;;;;;;5012034;28;20211;-65
2023/01/24 03:41:10;;;;;;;13.93;12.43;;;;;;;;;;5015794;28;20211;-65
2023/01/24 03:43:35;;;;;;;13.97;12.47;;;;;;;;;;5022610;28;20602;-65
2023/01/24 03:46:01;;;;;;;14.87;13.20;;;;;;;;;;5010186;28;20563;-65
2023/01/24 03:48:34;;;;;;;13.60;12.07;;;;;;;;;;5010319;28;20754;-65
2023/01/24 03:53:43;;;;;;;14.50;12.40;;;;;;;;;;5014765;28;20275;-65
2023/01/24 03:56:08;;;;;;;13.87;12.20;;;;;;;;;;5029199;28;20340;-65
2023/01/24 03:58:34;;;;;;;14.63;13.00;;;;;;;;;;5030299;28;20286;-65
2023/01/24 04:00:59;;;;;;;13.80;12.37;;;;;;;;;;5012294;28;20601;-65
2023/01/24 04:03:24;;;;;;;15.43;13.43;;;;;;;;;;5028630;28;20219;-65
2023/01/24 04:05:49;;;;;;;15.93;13.80;;;;;;;;;;5022359;28;20210;-65
2023/01/24 04:08:15;;;;;;;15.37;13.50;;;;;;;;;;5024056;28;20230;-65
2023/01/24 04:10:40;;;;;;;16.00;13.47;;;;;;;;;;5029240;28;20208;-65
2023/01/24 04:13:06;;;;;;;14.97;13.23;;;;;;;;;;5029502;28;20738;-65
2023/01/24 04:15:31;;;;;;;14.27;12.57;;;;;;;;;;5012853;28;20223;-65
2023/01/24 04:17:57;;;;;;;14.73;13.07;;;;;;;;;;5009278;28;20224;-65
2023/01/24 04:20:22;;;;;;;15.00;13.40;;;;;;;;;;4992354;28;20220;-65
2023/01/24 04:22:48;;;;;;;15.87;12.97;;;;;;;;;;5017058;28;20219;-65
2023/01/24 04:25:13;;;;;;;15.40;13.47;;;;;;;;;;5011134;28;20588;-65
2023/01/24 04:27:38;;;;;;;15.27;13.67;;;;;;;;;;5029918;28;20218;-65
2023/01/24 04:30:05;;;;;;;13.80;12.27;;;;;;;;;;5029513;28;20675;-65
2023/01/24 04:32:30;;;;;;;14.93;13.30;;;;;;;;;;5028869;28;20224;-65
2023/01/24 04:34:56;;;;;;;14.73;12.83;;;;;;;;;;5032326;28;20280;-65
2023/01/24 04:37:21;;;;;;;16.13;14.23;;;;;;;;;;5033310;28;20207;-65
2023/01/24 04:39:46;;;;;;;14.77;12.93;;;;;;;;;;5026717;28;20220;-65
2023/01/24 04:42:12;;;;;;;17.30;15.00;;;;;;;;;;5013492;28;20246;-65
2023/01/24 04:44:37;;;;;;;16.60;14.27;;;;;;;;;;5013974;28;20216;-65
2023/01/24 04:47:02;;;;;;;14.67;13.00;;;;;;;;;;5012714;28;20235;-65
2023/01/24 04:49:28;;;;;;;16.67;14.87;;;;;;;;;;5013683;28;20314;-65
2023/01/24 04:51:53;;;;;;;16.50;14.17;;;;;;;;;;5031758;28;20232;-65
2023/01/24 04:54:18;;;;;;;16.63;14.93;;;;;;;;;;5032359;28;20302;-65
2023/01/24 04:56:44;;;;;;;16.00;13.50;;;;;;;;;;5033521;28;20302;-65
2023/01/24 04:59:10;;;;;;;16.07;14.30;;;;;;;;;;5032272;28;20219;-65
2023/01/24 05:01:36;;;;;;;16.67;14.73;;;;;;;;;;5033327;28;20219;-65
2023/01/24 05:04:01;;;;;;;16.63;13.97;;;;;;;;;;5032248;28;20734;-65
2023/01/24 05:06:27;;;;;;;16.77;14.80;;;;;;;;;;5032422;28;20246;-65
2023/01/24 05:08:52;;;;;;;15.83;14.10;;;;;;;;;;5022335;28;20255;-65
2023/01/24 05:11:18;;;;;;;14.97;13.23;;;;;;;;;;5012879;28;20295;-65
2023/01/24 05:13:43;;;;;;;14.67;12.93;;;;;;;;;;5012638;28;20319;-65
2023/01/24 05:16:08;;;;;;;15.07;13.27;;;;;;;;;;5012991;28;20216;-65
2023/01/24 05:18:34;;;;;;;14.53;13.03;;;;;;;;;;5013319;28;20267;-65
2023/01/24 05:21:04;;;;;;;15.07;13.47;;;;;;;;;;5012746;28;20212;-65
2023/01/24 05:23:29;;;;;;;15.00;13.40;;;;;;;;;;5012907;28;20201;-65
2023/01/24 05:25:57;;;;;;;15.10;13.00;;;;;;;;;;5000009;28;20217;-66
2023/01/24 05:28:23;;;;;;;16.47;14.50;;;;;;;;;;4999545;28;20303;-65
2023/01/24 05:30:48;;;;;;;14.43;12.70;;;;;;;;;;5003593;28;20311;-65
2023/01/24 05:33:13;;;;;;;15.57;13.90;;;;;;;;;;5003140;28;20228;-66
2023/01/24 05:35:40;;;;;;;17.13;15.23;;;;;;;;;;5002782;28;20258;-65
2023/01/24 05:38:06;;;;;;;14.37;12.87;;;;;;;;;;5002880;28;20208;-65
2023/01/24 05:40:31;;;;;;;14.73;13.13;;;;;;;;;;5003593;28;20226;-65
2023/01/24 05:42:56;;;;;;;15.57;13.87;;;;;;;;;;5001006;28;20296;-66
2023/01/24 05:45:22;;;;;;;15.93;14.20;;;;;;;;;;4991272;28;20235;-65
2023/01/24 05:47:47;;;;;;;14.57;12.67;;;;;;;;;;4995228;28;20225;-65
2023/01/24 05:50:12;;;;;;;15.50;13.80;;;;;;;;;;4995532;28;20539;-65
2023/01/24 05:52:38;;;;;;;14.90;13.00;;;;;;;;;;5002888;28;20646;-65
2023/01/24 05:55:03;;;;;;;14.27;12.77;;;;;;;;;;5002677;28;20244;-65
2023/01/24 05:57:30;;;;;;;15.23;13.50;;;;;;;;;;5002403;28;20226;-65
2023/01/24 05:59:55;;;;;;;15.23;13.50;;;;;;;;;;5002542;28;20215;-65
2023/01/24 06:02:20;;;;;;;14.80;13.10;;;;;;;;;;5002057;28;20221;-65
2023/01/24 06:04:45;;;;;;;16.70;14.17;;;;;;;;;;5002679;28;20224;-65
2023/01/24 06:07:11;;;;;;;15.60;13.60;;;;;;;;;;4996917;28;20244;-65
2023/01/24 06:09:36;;;;;;;14.53;12.80;;;;;;;;;;4994688;28;20204;-65
2023/01/24 06:12:01;;;;;;;14.70;12.80;;;;;;;;;;4994950;28;20323;-65
2023/01/24 06:14:27;;;;;;;14.47;12.77;;;;;;;;;;4983332;28;20577;-66
2023/01/24 06:16:52;;;;;;;15.50;13.83;;;;;;;;;;5001958;28;20715;-65
2023/01/24 06:19:17;;;;;;;17.43;15.63;;;;;;;;;;5001827;28;20228;-66
2023/01/24 06:21:45;;;;;;;15.60;13.27;;;;;;;;;;5002527;28;20374;-65
2023/01/24 06:24:15;;;;;;;15.50;13.83;;;;;;;;;;4984074;28;20208;-65
2023/01/24 06:26:41;;;;;;;15.63;13.93;;;;;;;;;;5003848;28;20212;-65
2023/01/24 06:29:07;;;;;;;15.87;13.63;;;;;;;;;;5022031;28;20223;-65
2023/01/24 06:31:35;;;;;;;16.50;14.70;;;;;;;;;;5010333;28;20223;-65
2023/01/24 06:34:07;;;;;;;15.93;13.67;;;;;;;;;;5010501;28;20221;-65
2023/01/24 06:36:35;;;;;;;14.70;13.03;;;;;;;;;;5004415;28;20223;-65
2023/01/24 06:39:01;;;;;;;16.10;14.50;;;;;;;;;;4990940;28;20797;-62
2023/01/24 06:41:26;;;;;;;17.63;14.83;;;;;;;;;;5011771;28;20212;-65
2023/01/24 06:43:51;;;;;;;15.00;13.33;;;;;;;;;;5008462;28;20298;-65
2023/01/24 06:46:17;;;;;;;17.50;15.90;;;;;;;;;;4996662;28;21008;-64
2023/01/24 06:48:43;;;;;;;15.87;14.17;;;;;;;;;;5007211;28;20212;-63
2023/01/24 06:51:09;;;;;;;15.10;13.50;;;;;;;;;;4990280;28;20636;-64
2023/01/24 06:53:35;;;;;;;15.87;13.80;;;;;;;;;;5024677;28;20835;-64
2023/01/24 06:56:00;;;;;;;16.57;14.37;;;;;;;;;;5021329;28;20747;-65
2023/01/24 06:58:25;;;;;;;16.10;14.00;;;;;;;;;;5001968;28;20232;-64
2023/01/24 07:00:52;;;;;;;16.17;14.33;;;;;;;;;;5020727;28;20220;-63
2023/01/24 07:03:17;;;;;;;17.60;14.87;;;;;;;;;;5003917;28;20200;-63
2023/01/24 07:05:42;;;;;;;17.03;15.23;;;;;;;;;;5019703;28;20208;-63
2023/01/24 07:08:07;;;;;;;15.93;14.20;;;;;;;;;;5022745;28;20212;-63
2023/01/24 07:10:33;;;;;;;17.73;15.00;;;;;;;;;;5011252;28;20682;-63
2023/01/24 07:12:58;;;;;;;16.27;14.40;;;;;;;;;;5010368;28;20221;-64
2023/01/24 07:15:24;;;;;;;15.27;13.50;;;;;;;;;;5028580;28;20747;-63
2023/01/24 07:17:49;;;;;;;14.97;13.37;;;;;;;;;;5030918;28;20212;-64
2023/01/24 07:20:15;;;;;;;16.83;14.63;;;;;;;;;;5029557;28;20211;-64
2023/01/24 07:22:40;;;;;;;16.47;14.53;;;;;;;;;;5030797;28;20273;-63
2023/01/24 07:25:13;;;;;;;16.47;13.73;;;;;;;;;;5030194;28;20832;-63
2023/01/24 07:27:38;;;;;;;16.43;14.33;;;;;;;;;;5012685;28;20283;-63
2023/01/24 07:30:04;;;;;;;14.77;13.17;;;;;;;;;;5007578;28;20208;-63
2023/01/24 07:32:29;;;;;;;15.47;13.77;;;;;;;;;;5028897;28;20216;-63
2023/01/24 07:34:55;;;;;;;15.87;13.87;;;;;;;;;;5029807;28;20203;-63
2023/01/24 07:37:22;;;;;;;16.27;14.47;;;;;;;;;;5009015;28;20307;-63
2023/01/24 07:39:48;;;;;;;15.93;13.73;;;;;;;;;;5014653;28;20219;-63
2023/01/24 07:42:13;;;;;;;16.20;14.00;;;;;;;;;;5022551;28;20295;-63
2023/01/24 07:44:38;;;;;;;16.57;14.67;;;;;;;;;;5006317;28;20277;-63
2023/01/24 07:47:04;;;;;;;16.10;14.40;;;;;;;;;;5012860;28;20220;-63
2023/01/24 07:49:29;;;;;;;16.57;14.77;;;;;;;;;;5009911;28;20372;-63
2023/01/24 07:51:54;;;;;;;16.73;14.70;;;;;;;;;;5028842;28;20231;-63
2023/01/24 07:54:20;;;;;;;16.10;14.40;;;;;;;;;;5029831;28;20215;-63
2023/01/24 07:56:45;;;;;;;16.13;14.43;;;;;;;;;;5029740;28;20697;-65
2023/01/24 07:59:11;;;;;;;16.83;15.00;;;;;;;;;;5029746;28;20216;-64
2023/01/24 08:01:36;;;;;;;16.63;14.60;;;;;;;;;;5030269;28;20607;-64
2023/01/24 08:04:01;;;;;;;17.90;16.00;;;;;;;;;;5029202;28;20619;-63
2023/01/24 08:06:26;;;;;;;16.27;14.53;;;;;;;;;;5025502;28;20203;-64
2023/01/24 08:08:52;;;;;;;16.80;15.00;;;;;;;;;;5014055;28;20211;-65
2023/01/24 08:11:17;;;;;;;16.27;14.50;;;;;;;;;;5025160;28;20208;-64
2023/01/24 08:13:43;;;;;;;16.57;14.77;;;;;;;;;;5030322;28;20671;-64
2023/01/24 08:16:08;;;;;;;15.60;13.83;;;;;;;;;;5026136;28;20733;-63
2023/01/24 08:18:34;;;;;;;15.37;13.77;;;;;;;;;;5024398;28;20238;-64
2023/01/24 08:20:59;;;;;;;15.27;13.70;;;;;;;;;;5029262;28;20621;-63
2023/01/24 08:23:25;;;;;;;15.10;13.50;;;;;;;;;;5028685;28;20314;-64
2023/01/24 08:25:50;;;;;;;15.10;13.50;;;;;;;;;;5030205;28;20713;-64
2023/01/24 08:28:16;;;;;;;15.63;13.87;;;;;;;;;;5029433;28;20211;-64
2023/01/24 08:30:41;;;;;;;15.17;13.03;;;;;;;;;;5029171;28;20203;-64
2023/01/24 08:33:06;;;;;;;15.23;13.30;;;;;;;;;;5029364;28;20600;-64
2023/01/24 08:35:32;;;;;;;15.73;13.90;;;;;;;;;;5030076;28;20319;-64
2023/01/24 08:37:57;;;;;;;15.37;13.23;;;;;;;;;;5029184;28;20216;-64
2023/01/24 08:40:23;;;;;;;15.07;13.17;;;;;;;;;;5006294;28;20235;-64
2023/01/24 08:42:48;;;;;;;14.73;13.13;;;;;;;;;;5010394;28;20222;-64
2023/01/24 08:45:13;;;;;;;21.97;16.73;;;;;;;;;;5008846;28;20557;-64
2023/01/24 08:47:39;;;;;;;17.30;15.47;;;;;;;;;;5010325;28;20197;-64
2023/01/24 08:50:04;;;;;;;20.40;18.27;;;;;;;;;;5013000;28;20223;-64
2023/01/24 08:52:29;;;;;;;28.60;25.57;;;;;;;;;;5028796;28;20220;-64
2023/01/24 08:54:55;;;;;;;20.07;17.90;;;;;;;;;;5029964;28;20211;-64
2023/01/24 08:57:20;;;;;;;21.00;18.83;;;;;;;;;;5029295;28;20243;-64
2023/01/24 08:59:45;;;;;;;15.23;13.63;;;;;;;;;;5029100;28;20809;-64
2023/01/24 09:02:11;;;;;;;15.00;13.40;;;;;;;;;;5028867;28;20204;-64
2023/01/24 09:04:37;;;;;;;17.80;14.67;;;;;;;;;;5012112;28;20212;-64
2023/01/24 09:07:02;;;;;;;15.77;14.07;;;;;;;;;;5015930;28;20320;-64
2023/01/24 09:09:27;;;;;;;16.20;14.50;;;;;;;;;;5009808;28;20216;-64
2023/01/24 09:11:53;;;;;;;15.83;13.87;;;;;;;;;;5009808;28;20213;-64
2023/01/24 09:14:18;;;;;;;15.97;14.17;;;;;;;;;;5017783;28;20216;-64
2023/01/24 09:16:43;;;;;;;16.23;14.30;;;;;;;;;;5029658;28;20212;-64
2023/01/24 09:19:10;;;;;;;17.07;14.70;;;;;;;;;;5029182;28;20243;-64
2023/01/24 09:21:36;;;;;;;15.67;14.07;;;;;;;;;;5030506;28;20204;-64
2023/01/24 09:24:01;;;;;;;16.03;14.40;;;;;;;;;;5014718;28;20215;-64
2023/01/24 09:26:26;;;;;;;14.83;13.23;;;;;;;;;;5032000;28;20240;-64
2023/01/24 09:28:52;;;;;;;15.43;13.77;;;;;;;;;;5033190;28;20234;-64
2023/01/24 09:31:17;;;;;;;14.57;13.07;;;;;;;;;;5025710;28;20235;-64
2023/01/24 09:33:42;;;;;;;14.03;12.53;;;;;;;;;;5014189;28;20596;-64
2023/01/24 09:36:08;;;;;;;14.87;13.00;;;;;;;;;;5012776;28;20212;-65
2023/01/24 09:38:33;;;;;;;13.50;12.10;;;;;;;;;;5021821;28;20521;-65
2023/01/24 09:41:01;;;;;;;15.00;13.40;;;;;;;;;;5027608;28;20211;-65
2023/01/24 09:43:27;;;;;;;14.67;12.87;;;;;;;;;;5032629;28;20231;-65
2023/01/24 09:45:56;;;;;;;14.67;12.87;;;;;;;;;;5032809;28;20683;-65
2023/01/24 09:48:21;;;;;;;14.70;13.13;;;;;;;;;;5013509;28;20218;-65
2023/01/24 09:50:47;;;;;;;14.90;13.40;;;;;;;;;;5023623;28;20208;-65
2023/01/24 09:53:17;;;;;;;14.83;13.23;;;;;;;;;;4994803;28;20243;-65
2023/01/24 09:55:43;;;;;;;14.07;12.27;;;;;;;;;;5023720;28;20223;-65
2023/01/24 09:58:18;;;;;;;14.73;13.13;;;;;;;;;;4997112;28;20213;-65
2023/01/24 10:00:44;;;;;;;14.60;13.07;;;;;;;;;;5012742;28;20212;-65
2023/01/24 10:03:12;;;;;;;14.13;12.63;;;;;;;;;;5011041;28;20216;-65
2023/01/24 10:05:39;;;;;;;25.40;22.70;;;;;;;;;;4994199;28;20630;-65
2023/01/24 10:08:05;;;;;;;54.30;48.63;;;;;;;;;;4992435;28;20700;-64
2023/01/24 10:10:34;;;;;;;33.23;29.97;;;;;;;;;;4974702;28;20201;-65
2023/01/24 10:13:12;;;;;;;27.10;24.40;;;;;;;;;;4975684;28;20316;-65
2023/01/24 10:15:37;;;;;;;17.13;15.43;;;;;;;;;;4991742;28;20271;-65
2023/01/24 10:18:06;;;;;;;15.70;14.10;;;;;;;;;;4991981;28;20225;-65
2023/01/24 10:20:42;;;;;;;14.37;12.87;;;;;;;;;;4975430;28;20233;-65
2023/01/24 10:23:11;;;;;;;14.17;12.67;;;;;;;;;;4974228;28;20216;-65
2023/01/24 10:25:47;;;;;;;13.90;12.30;;;;;;;;;;4975257;28;20216;-65
2023/01/24 10:28:28;;;;;;;13.40;12.00;;;;;;;;;;4992138;28;20236;-65
2023/01/24 10:30:56;;;;;;;13.77;12.13;;;;;;;;;;4999526;28;20216;-65
2023/01/24 10:33:21;;;;;;;14.63;11.87;;;;;;;;;;4993466;28;20251;-65
2023/01/24 10:35:52;;;;;;;14.07;12.67;;;;;;;;;;4960778;28;20232;-65
2023/01/24 10:38:17;;;;;;;13.90;12.40;;;;;;;;;;5010919;28;20710;-65
2023/01/24 10:40:49;;;;;;;13.30;11.90;;;;;;;;;;5007268;28;20287;-65
2023/01/24 10:43:14;;;;;;;13.47;12.07;;;;;;;;;;5011395;28;20234;-65
2023/01/24 10:45:42;;;;;;;12.97;11.57;;;;;;;;;;4993626;28;20672;-64
2023/01/24 10:48:19;;;;;;;13.80;12.30;;;;;;;;;;4998703;28;20212;-65
2023/01/24 10:50:44;;;;;;;13.80;12.40;;;;;;;;;;4984924;28;20283;-65
2023/01/24 10:53:11;;;;;;;13.37;11.97;;;;;;;;;;4991692;28;20582;-65
2023/01/24 10:55:37;;;;;;;12.13;10.83;;;;;;;;;;4992094;28;20208;-64
2023/01/24 10:58:03;;;;;;;13.40;11.80;;;;;;;;;;4990848;28;20295;-65
2023/01/24 11:00:33;;;;;;;12.40;11.10;;;;;;;;;;4991800;28;20201;-65
2023/01/24 11:02:59;;;;;;;12.30;11.10;;;;;;;;;;4991600;28;20578;-64
2023/01/24 11:05:25;;;;;;;17.10;15.45;;;;;;;;;;4972396;28;20492;-64
2023/01/24 11:07:51;;;;;;;35.93;30.20;;;;;;;;;;5002195;28;20703;-65
2023/01/24 11:10:17;;;;;;;67.87;57.63;;;;;;;;;;5010836;28;20624;-65
2023/01/24 11:12:49;;;;;;;23.27;20.07;;;;;;;;;;4995374;28;20217;-64
2023/01/24 11:15:17;;;;;;;11.87;10.63;;;;;;;;;;4991282;28;20585;-64
2023/01/24 11:17:42;;;;;;;19.43;17.43;;;;;;;;;;4997780;28;20212;-65
2023/01/24 11:20:19;;;;;;;16.00;14.30;;;;;;;;;;5009889;28;20217;-65
2023/01/24 11:22:48;;;;;;;14.03;11.83;;;;;;;;;;4996650;28;20223;-65
2023/01/24 11:25:14;;;;;;;12.00;10.80;;;;;;;;;;4987594;28;20623;-65
2023/01/24 11:27:45;;;;;;;12.00;10.20;;;;;;;;;;5004156;28;20299;-64
2023/01/24 11:30:16;;;;;;;11.47;10.27;;;;;;;;;;5005104;28;20213;-65
2023/01/24 11:32:46;;;;;;;10.53;9.43;;;;;;;;;;4989726;28;20688;-65
2023/01/24 11:35:12;;;;;;;12.27;10.57;;;;;;;;;;4990173;28;20263;-65
2023/01/24 11:37:37;;;;;;;11.80;9.83;;;;;;;;;;4990335;28;20740;-65
2023/01/24 11:40:02;;;;;;;12.27;10.50;;;;;;;;;;4990003;28;20213;-65
2023/01/24 11:42:29;;;;;;;11.07;9.87;;;;;;;;;;5006162;28;20670;-65
2023/01/24 11:44:55;;;;;;;11.07;9.90;;;;;;;;;;5001933;28;20212;-65
2023/01/24 11:47:21;;;;;;;11.03;9.93;;;;;;;;;;4989901;28;20205;-65
2023/01/24 11:49:50;;;;;;;11.73;10.40;;;;;;;;;;4988018;28;20687;-65
2023/01/24 11:52:19;;;;;;;11.00;9.80;;;;;;;;;;4989553;28;20332;-64
2023/01/24 11:54:47;;;;;;;11.80;9.93;;;;;;;;;;4991617;28;20227;-65
2023/01/24 11:57:32;;;;;;;10.70;9.60;;;;;;;;;;5007393;28;20220;-66
2023/01/24 12:00:18;;;;;;;11.20;10.10;;;;;;;;;;5010767;28;20224;-65
2023/01/24 12:02:43;;;;;;;10.50;9.40;;;;;;;;;;5009353;28;20706;-65
2023/01/24 12:05:08;;;;;;;11.57;9.47;;;;;;;;;;5010099;28;20209;-65
2023/01/24 12:07:50;;;;;;;10.07;8.97;;;;;;;;;;5027273;28;20219;-65
2023/01/24 12:10:20;;;;;;;9.80;8.80;;;;;;;;;;5008290;28;20223;-65
2023/01/24 12:12:49;;;;;;;9.73;8.70;;;;;;;;;;5008988;28;20275;-65
2023/01/24 12:15:23;;;;;;;10.03;9.03;;;;;;;;;;4992401;28;20244;-65
2023/01/24 12:17:50;;;;;;;9.97;8.87;;;;;;;;;;4990582;28;20591;-65
2023/01/24 12:20:22;;;;;;;9.83;8.80;;;;;;;;;;4990168;28;20241;-66
2023/01/24 12:22:49;;;;;;;9.70;8.47;;;;;;;;;;4989953;28;20239;-65
2023/01/24 12:25:23;;;;;;;9.97;8.57;;;;;;;;;;4973174;28;20244;-65
2023/01/24 12:27:49;;;;;;;9.47;8.47;;;;;;;;;;4973548;28;20208;-65
2023/01/24 12:30:26;;;;;;;10.03;8.70;;;;;;;;;;4972299;28;20208;-65
2023/01/24 12:32:53;;;;;;;9.20;8.10;;;;;;;;;;4972946;28;20224;-65
2023/01/24 12:35:22;;;;;;;9.53;8.23;;;;;;;;;;4990004;28;20696;-65
2023/01/24 12:37:51;;;;;;;9.83;8.47;;;;;;;;;;4972552;28;20242;-65
2023/01/24 12:40:18;;;;;;;10.17;8.20;;;;;;;;;;4977201;28;20557;-65
2023/01/24 12:42:58;;;;;;;9.60;8.60;;;;;;;;;;4973189;28;20681;-65
2023/01/24 12:45:25;;;;;;;10.43;8.57;;;;;;;;;;4991190;28;20596;-65
2023/01/24 12:47:52;;;;;;;9.33;8.27;;;;;;;;;;4992345;28;20243;-65
2023/01/24 12:50:20;;;;;;;10.57;8.10;;;;;;;;;;4993829;28;20212;-65
2023/01/24 12:52:50;;;;;;;8.80;7.47;;;;;;;;;;4992510;28;20224;-65
2023/01/24 12:55:24;;;;;;;9.10;7.67;;;;;;;;;;5009669;28;20209;-65
2023/01/24 12:57:59;;;;;;;8.97;7.90;;;;;;;;;;5013120;28;20278;-65
2023/01/24 13:00:24;;;;;;;9.40;8.20;;;;;;;;;;5012113;28;20201;-65
2023/01/24 13:02:54;;;;;;;9.47;8.03;;;;;;;;;;5013449;28;20219;-65
2023/01/24 13:05:24;;;;;;;10.63;9.53;;;;;;;;;;5011239;28;20220;-65
2023/01/24 13:07:50;;;;;;;12.67;10.67;;;;;;;;;;5008380;28;20573;-65
2023/01/24 13:10:21;;;;;;;10.53;9.40;;;;;;;;;;5013181;28;20212;-65
2023/01/24 13:12:47;;;;;;;8.67;7.77;;;;;;;;;;4995303;28;20300;-65
2023/01/24 13:15:15;;;;;;;11.37;10.00;;;;;;;;;;5010266;28;20826;-65
2023/01/24 13:17:47;;;;;;;9.57;8.30;;;;;;;;;;5013550;28;20208;-65
2023/01/24 13:20:15;;;;;;;10.70;9.60;;;;;;;;;;4994679;28;20273;-65
2023/01/24 13:22:51;;;;;;;10.27;8.93;;;;;;;;;;5013272;28;20835;-65
2023/01/24 13:25:16;;;;;;;9.40;8.47;;;;;;;;;;5012858;28;20258;-65
2023/01/24 13:27:46;;;;;;;10.07;9.07;;;;;;;;;;5012654;28;20212;-65
2023/01/24 13:30:32;;;;;;;9.87;8.87;;;;;;;;;;5011445;28;20220;-65
2023/01/24 13:32:58;;;;;;;9.23;8.13;;;;;;;;;;5012170;28;20232;-65
2023/01/24 13:35:24;;;;;;;9.57;8.23;;;;;;;;;;5011526;28;20216;-65
2023/01/24 13:37:50;;;;;;;9.93;8.93;;;;;;;;;;5011855;28;20667;-65
2023/01/24 13:40:15;;;;;;;9.93;8.93;;;;;;;;;;5006294;28;20213;-65
2023/01/24 13:42:41;;;;;;;10.27;9.10;;;;;;;;;;4993477;28;20215;-65
2023/01/24 13:45:25;;;;;;;9.07;8.10;;;;;;;;;;4975437;28;20217;-65
2023/01/24 13:47:53;;;;;;;9.67;8.60;;;;;;;;;;4992307;28;20307;-65
2023/01/24 13:50:20;;;;;;;10.07;8.77;;;;;;;;;;4974099;28;20239;-65
2023/01/24 13:52:46;;;;;;;10.67;9.57;;;;;;;;;;4993057;28;20252;-65
2023/01/24 13:55:19;;;;;;;9.70;8.70;;;;;;;;;;4992128;28;20372;-65
2023/01/24 13:57:44;;;;;;;11.53;10.03;;;;;;;;;;4993309;28;20228;-65
2023/01/24 14:00:10;;;;;;;11.27;9.90;;;;;;;;;;4975082;28;20220;-65
2023/01/24 14:02:36;;;;;;;9.80;8.80;;;;;;;;;;4992072;28;20209;-65
2023/01/24 14:05:02;;;;;;;10.27;9.17;;;;;;;;;;4975258;28;20228;-65
2023/01/24 14:07:28;;;;;;;9.00;8.07;;;;;;;;;;4994264;28;20227;-65
2023/01/24 14:10:00;;;;;;;9.50;8.50;;;;;;;;;;5008859;28;20441;-65
2023/01/24 14:12:25;;;;;;;10.30;8.30;;;;;;;;;;5010699;28;20691;-65
2023/01/24 14:14:58;;;;;;;9.07;8.00;;;;;;;;;;4998320;28;20213;-65
2023/01/24 14:17:27;;;;;;;8.93;7.97;;;;;;;;;;4992477;28;20214;-65
2023/01/24 14:19:54;;;;;;;9.60;8.50;;;;;;;;;;4992882;28;20308;-65
2023/01/24 14:22:20;;;;;;;8.50;7.60;;;;;;;;;;4991313;28;20221;-65
2023/01/24 14:24:54;;;;;;;8.93;8.00;;;;;;;;;;4992942;28;20229;-65
2023/01/24 14:27:20;;;;;;;8.63;7.73;;;;;;;;;;4992505;28;20221;-65
2023/01/24 14:29:46;;;;;;;9.97;8.40;;;;;;;;;;4992124;28;20220;-65
2023/01/24 14:32:18;;;;;;;8.97;7.53;;;;;;;;;;4991947;28;20648;-65
2023/01/24 14:34:47;;;;;;;8.40;7.43;;;;;;;;;;4992807;28;20217;-65
2023/01/24 14:37:12;;;;;;;7.90;7.10;;;;;;;;;;4991397;28;20213;-65
2023/01/24 14:39:37;;;;;;;8.90;7.57;;;;;;;;;;4992543;28;20680;-65
2023/01/24 14:42:03;;;;;;;8.27;7.33;;;;;;;;;;5006410;28;20259;-65
2023/01/24 14:44:29;;;;;;;10.83;7.33;;;;;;;;;;5011363;28;20558;-65
2023/01/24 14:47:00;;;;;;;7.97;7.10;;;;;;;;;;5011653;28;20224;-65
2023/01/24 14:49:27;;;;;;;8.60;6.70;;;;;;;;;;5031555;28;20204;-65
2023/01/24 14:51:52;;;;;;;8.70;7.37;;;;;;;;;;5012758;28;20517;-65
2023/01/24 14:54:19;;;;;;;8.83;7.63;;;;;;;;;;5011276;28;20216;-65
2023/01/24 14:56:45;;;;;;;9.53;7.67;;;;;;;;;;5019781;28;20226;-65
2023/01/24 14:59:11;;;;;;;8.00;7.13;;;;;;;;;;5009820;28;20216;-65